sensor_id;sensor_type;location;lat;lon;timestamp;P1;durP1;ratioP1;P2;durP2;ratioP2
70757;SDS011;59316;52.964;7.102;2023-06-14T04:17:45;5.00;;;2.78;;
70757;SDS011;59316;52.964;7.102;2023-06-14T04:23:17;5.40;;;2.83;;
70757;SDS011;59316;52.964;7.102;2023-06-14T04:28:39;5.70;;;3.10;;
70757;SDS011;59316;52.964;7.102;2023-06-14T04:34:02;8.43;;;3.00;;
70757;SDS011;59316;52.964;7.102;2023-06-14T04:39:23;6.60;;;3.30;;
70757;SDS011;59316;52.964;7.102;2023-06-14T04:44:44;5.53;;;3.30;;
70757;SDS011;59316;52.964;7.102;2023-06-14T04:50:06;7.25;;;3.35;;
70757;SDS011;59316;52.964;7.102;2023-06-14T04:55:27;7.95;;;2.63;;
70757;SDS011;59316;52.964;7.102;2023-06-14T05:00:49;7.82;;;2.67;;
70757;SDS011;59316;52.964;7.102;2023-06-14T05:06:11;6.57;;;2.95;;
70757;SDS011;59316;52.964;7.102;2023-06-14T05:11:32;5.10;;;2.70;;
70757;SDS011;59316;52.964;7.102;2023-06-14T05:16:54;5.65;;;2.88;;
70757;SDS011;59316;52.964;7.102;2023-06-14T05:22:15;3.50;;;2.63;;
70757;SDS011;59316;52.964;7.102;2023-06-14T05:27:36;5.38;;;2.67;;
70757;SDS011;59316;52.964;7.102;2023-06-14T05:32:57;5.13;;;3.20;;
70757;SDS011;59316;52.964;7.102;2023-06-14T05:38:19;2.83;;;2.38;;
70757;SDS011;59316;52.964;7.102;2023-06-14T05:43:40;5.90;;;2.70;;
70757;SDS011;59316;52.964;7.102;2023-06-14T05:49:01;3.92;;;2.65;;
70757;SDS011;59316;52.964;7.102;2023-06-14T05:54:22;7.80;;;3.00;;
70757;SDS011;59316;52.964;7.102;2023-06-14T05:59:42;4.75;;;2.40;;
70757;SDS011;59316;52.964;7.102;2023-06-14T06:05:03;3.70;;;2.50;;
70757;SDS011;59316;52.964;7.102;2023-06-14T06:10:25;4.35;;;2.65;;
70757;SDS011;59316;52.964;7.102;2023-06-14T06:15:46;6.80;;;2.80;;
70757;SDS011;59316;52.964;7.102;2023-06-14T06:21:06;7.57;;;2.67;;
70757;SDS011;59316;52.964;7.102;2023-06-14T06:26:27;3.20;;;2.22;;
70757;SDS011;59316;52.964;7.102;2023-06-14T06:31:48;5.50;;;2.60;;
70757;SDS011;59316;52.964;7.102;2023-06-14T06:37:09;5.18;;;2.45;;
70757;SDS011;59316;52.964;7.102;2023-06-14T06:42:34;7.57;;;2.60;;
70757;SDS011;59316;52.964;7.102;2023-06-14T06:47:58;3.88;;;2.15;;
70757;SDS011;59316;52.964;7.102;2023-06-14T06:53:18;6.55;;;2.58;;
70757;SDS011;59316;52.964;7.102;2023-06-14T06:58:54;2.97;;;2.03;;
70757;SDS011;59316;52.964;7.102;2023-06-14T07:04:15;4.70;;;2.40;;
70757;SDS011;59316;52.964;7.102;2023-06-14T07:09:37;4.20;;;1.92;;
70757;SDS011;59316;52.964;7.102;2023-06-14T07:14:57;2.30;;;2.05;;
70757;SDS011;59316;52.964;7.102;2023-06-14T07:20:19;6.63;;;2.33;;
70757;SDS011;59316;52.964;7.102;2023-06-14T07:25:40;4.50;;;2.10;;
70757;SDS011;59316;52.964;7.102;2023-06-14T07:31:01;4.63;;;2.03;;
70757;SDS011;59316;52.964;7.102;2023-06-14T07:36:22;3.95;;;2.00;;
70757;SDS011;59316;52.964;7.102;2023-06-14T07:41:43;5.50;;;2.10;;
70757;SDS011;59316;52.964;7.102;2023-06-14T07:47:04;2.90;;;2.03;;
70757;SDS011;59316;52.964;7.102;2023-06-14T07:52:26;4.60;;;2.00;;
70757;SDS011;59316;52.964;7.102;2023-06-14T07:57:48;6.25;;;2.30;;
70757;SDS011;59316;52.964;7.102;2023-06-14T08:03:08;7.25;;;2.20;;
70757;SDS011;59316;52.964;7.102;2023-06-14T08:08:30;2.92;;;1.92;;
70757;SDS011;59316;52.964;7.102;2023-06-14T08:13:50;5.80;;;2.10;;
70757;SDS011;59316;52.964;7.102;2023-06-14T08:19:11;3.53;;;1.92;;
70757;SDS011;59316;52.964;7.102;2023-06-14T08:24:32;4.28;;;1.90;;
70757;SDS011;59316;52.964;7.102;2023-06-14T08:29:53;3.55;;;2.00;;
70757;SDS011;59316;52.964;7.102;2023-06-14T08:35:14;3.40;;;2.10;;
70757;SDS011;59316;52.964;7.102;2023-06-14T08:40:36;3.08;;;1.98;;
70757;SDS011;59316;52.964;7.102;2023-06-14T08:45:58;3.58;;;2.08;;
70757;SDS011;59316;52.964;7.102;2023-06-14T08:51:21;5.38;;;2.20;;
70757;SDS011;59316;52.964;7.102;2023-06-14T08:56:43;2.87;;;1.80;;
70757;SDS011;59316;52.964;7.102;2023-06-14T09:02:04;2.42;;;1.70;;
70757;SDS011;59316;52.964;7.102;2023-06-14T09:07:32;4.50;;;1.50;;
70757;SDS011;59316;52.964;7.102;2023-06-14T09:12:53;1.70;;;1.40;;
70757;SDS011;59316;52.964;7.102;2023-06-14T09:18:15;2.17;;;1.60;;
70757;SDS011;59316;52.964;7.102;2023-06-14T09:23:36;2.30;;;1.58;;
70757;SDS011;59316;52.964;7.102;2023-06-14T09:28:58;2.70;;;1.67;;
70757;SDS011;59316;52.964;7.102;2023-06-14T09:34:19;2.08;;;1.50;;
70757;SDS011;59316;52.964;7.102;2023-06-14T09:39:50;2.07;;;1.40;;
70757;SDS011;59316;52.964;7.102;2023-06-14T09:45:11;1.77;;;1.30;;
70757;SDS011;59316;52.964;7.102;2023-06-14T09:50:33;2.38;;;1.40;;
70757;SDS011;59316;52.964;7.102;2023-06-14T09:55:54;2.20;;;1.45;;
70757;SDS011;59316;52.964;7.102;2023-06-14T10:01:15;2.85;;;1.63;;
70757;SDS011;59316;52.964;7.102;2023-06-14T10:06:43;3.38;;;1.38;;
70757;SDS011;59316;52.964;7.102;2023-06-14T10:12:06;3.40;;;1.40;;
70757;SDS011;59316;52.964;7.102;2023-06-14T10:17:31;4.50;;;1.33;;
70757;SDS011;59316;52.964;7.102;2023-06-14T10:23:16;1.52;;;1.40;;
70757;SDS011;59316;52.964;7.102;2023-06-14T10:28:39;1.83;;;1.40;;
70757;SDS011;59316;52.964;7.102;2023-06-14T10:34:00;4.15;;;1.20;;
70757;SDS011;59316;52.964;7.102;2023-06-14T10:39:21;5.00;;;1.65;;
70757;SDS011;59316;52.964;7.102;2023-06-14T10:44:45;2.13;;;1.40;;
70757;SDS011;59316;52.964;7.102;2023-06-14T10:50:10;3.05;;;1.50;;
70757;SDS011;59316;52.964;7.102;2023-06-14T10:55:34;2.58;;;1.67;;
70757;SDS011;59316;52.964;7.102;2023-06-14T11:00:55;2.78;;;1.83;;
70757;SDS011;59316;52.964;7.102;2023-06-14T11:06:16;1.58;;;1.45;;
70757;SDS011;59316;52.964;7.102;2023-06-14T11:11:42;1.85;;;1.30;;
70757;SDS011;59316;52.964;7.102;2023-06-14T11:17:04;2.73;;;1.33;;
70757;SDS011;59316;52.964;7.102;2023-06-14T11:22:25;5.43;;;1.60;;
70757;SDS011;59316;52.964;7.102;2023-06-14T11:27:46;3.13;;;1.50;;
70757;SDS011;59316;52.964;7.102;2023-06-14T11:33:09;2.40;;;1.75;;
70757;SDS011;59316;52.964;7.102;2023-06-14T11:38:30;3.88;;;1.50;;
70757;SDS011;59316;52.964;7.102;2023-06-14T11:43:55;1.52;;;1.42;;
70757;SDS011;59316;52.964;7.102;2023-06-14T11:49:16;2.47;;;1.58;;
70757;SDS011;59316;52.964;7.102;2023-06-14T11:54:37;1.45;;;1.35;;
70757;SDS011;59316;52.964;7.102;2023-06-14T11:59:58;1.95;;;1.50;;
70757;SDS011;59316;52.964;7.102;2023-06-14T12:05:20;4.25;;;1.65;;
70757;SDS011;59316;52.964;7.102;2023-06-14T12:10:42;2.40;;;1.48;;
70757;SDS011;59316;52.964;7.102;2023-06-14T12:16:03;2.92;;;1.42;;
70757;SDS011;59316;52.964;7.102;2023-06-14T12:21:24;2.55;;;1.50;;
70757;SDS011;59316;52.964;7.102;2023-06-14T12:26:45;2.42;;;1.52;;
70757;SDS011;59316;52.964;7.102;2023-06-14T12:32:06;3.28;;;1.75;;
70757;SDS011;59316;52.964;7.102;2023-06-14T12:37:27;2.70;;;1.63;;
70757;SDS011;59316;52.964;7.102;2023-06-14T12:42:48;2.75;;;1.45;;
70757;SDS011;59316;52.964;7.102;2023-06-14T12:48:09;3.70;;;1.60;;
70757;SDS011;59316;52.964;7.102;2023-06-14T12:53:30;4.20;;;1.70;;
70757;SDS011;59316;52.964;7.102;2023-06-14T12:58:51;3.60;;;1.53;;
70757;SDS011;59316;52.964;7.102;2023-06-14T13:04:12;3.87;;;1.80;;
70757;SDS011;59316;52.964;7.102;2023-06-14T13:09:33;2.80;;;1.80;;
70757;SDS011;59316;52.964;7.102;2023-06-14T13:14:54;4.93;;;1.80;;
70757;SDS011;59316;52.964;7.102;2023-06-14T13:20:15;2.25;;;1.67;;
70757;SDS011;59316;52.964;7.102;2023-06-14T13:25:39;2.67;;;1.60;;
70757;SDS011;59316;52.964;7.102;2023-06-14T13:31:00;4.03;;;1.50;;
70757;SDS011;59316;52.964;7.102;2023-06-14T13:36:21;2.50;;;1.48;;
70757;SDS011;59316;52.964;7.102;2023-06-14T13:41:42;2.33;;;1.55;;
70757;SDS011;59316;52.964;7.102;2023-06-14T13:47:03;1.83;;;1.40;;
70757;SDS011;59316;52.964;7.102;2023-06-14T13:52:25;2.87;;;1.50;;
70757;SDS011;59316;52.964;7.102;2023-06-14T13:57:46;3.35;;;1.70;;
70757;SDS011;59316;52.964;7.102;2023-06-14T14:03:07;3.15;;;1.60;;
70757;SDS011;59316;52.964;7.102;2023-06-14T14:08:28;2.25;;;1.60;;
70757;SDS011;59316;52.964;7.102;2023-06-14T14:13:49;2.15;;;1.70;;
70757;SDS011;59316;52.964;7.102;2023-06-14T14:19:10;1.50;;;1.40;;
70757;SDS011;59316;52.964;7.102;2023-06-14T14:24:31;2.23;;;1.40;;
70757;SDS011;59316;52.964;7.102;2023-06-14T14:29:52;2.83;;;1.50;;
70757;SDS011;59316;52.964;7.102;2023-06-14T14:35:13;2.22;;;1.80;;
70757;SDS011;59316;52.964;7.102;2023-06-14T14:40:34;2.03;;;1.83;;
70757;SDS011;59316;52.964;7.102;2023-06-14T14:45:55;3.90;;;1.73;;
70757;SDS011;59316;52.964;7.102;2023-06-14T14:51:16;2.28;;;1.80;;
70757;SDS011;59316;52.964;7.102;2023-06-14T14:56:37;2.97;;;1.90;;
70757;SDS011;59316;52.964;7.102;2023-06-14T15:01:58;2.95;;;1.70;;
70757;SDS011;59316;52.964;7.102;2023-06-14T15:07:19;2.40;;;1.90;;
70757;SDS011;59316;52.964;7.102;2023-06-14T15:12:40;3.15;;;2.13;;
70757;SDS011;59316;52.964;7.102;2023-06-14T15:18:01;3.15;;;1.80;;
70757;SDS011;59316;52.964;7.102;2023-06-14T15:23:23;2.00;;;1.80;;
70757;SDS011;59316;52.964;7.102;2023-06-14T15:28:44;3.78;;;1.95;;
70757;SDS011;59316;52.964;7.102;2023-06-14T15:34:05;3.08;;;1.98;;
70757;SDS011;59316;52.964;7.102;2023-06-14T15:39:26;3.30;;;2.10;;
70757;SDS011;59316;52.964;7.102;2023-06-14T15:44:47;2.60;;;2.00;;
70757;SDS011;59316;52.964;7.102;2023-06-14T15:50:08;2.40;;;1.88;;
70757;SDS011;59316;52.964;7.102;2023-06-14T15:55:29;2.40;;;2.20;;
70757;SDS011;59316;52.964;7.102;2023-06-14T16:00:50;6.18;;;2.08;;
70757;SDS011;59316;52.964;7.102;2023-06-14T16:06:11;3.58;;;2.28;;
70757;SDS011;59316;52.964;7.102;2023-06-14T16:11:32;4.47;;;2.20;;
70757;SDS011;59316;52.964;7.102;2023-06-14T16:16:53;3.63;;;2.10;;
70757;SDS011;59316;52.964;7.102;2023-06-14T16:22:13;3.38;;;2.28;;
70757;SDS011;59316;52.964;7.102;2023-06-14T16:27:34;6.95;;;2.20;;
70757;SDS011;59316;52.964;7.102;2023-06-14T16:32:55;4.25;;;2.13;;
70757;SDS011;59316;52.964;7.102;2023-06-14T16:38:16;3.25;;;2.00;;
70757;SDS011;59316;52.964;7.102;2023-06-14T16:43:37;4.45;;;2.33;;
70757;SDS011;59316;52.964;7.102;2023-06-14T16:48:58;4.05;;;2.22;;
70757;SDS011;59316;52.964;7.102;2023-06-14T16:54:20;2.88;;;2.10;;
70757;SDS011;59316;52.964;7.102;2023-06-14T16:59:42;2.95;;;2.30;;
70757;SDS011;59316;52.964;7.102;2023-06-14T17:05:02;2.38;;;2.10;;
70757;SDS011;59316;52.964;7.102;2023-06-14T17:10:25;3.65;;;2.35;;
70757;SDS011;59316;52.964;7.102;2023-06-14T17:15:46;3.00;;;2.30;;
70757;SDS011;59316;52.964;7.102;2023-06-14T17:21:07;2.70;;;2.22;;
70757;SDS011;59316;52.964;7.102;2023-06-14T17:26:28;5.20;;;2.55;;
70757;SDS011;59316;52.964;7.102;2023-06-14T17:31:49;3.45;;;2.60;;
70757;SDS011;59316;52.964;7.102;2023-06-14T17:37:10;4.20;;;2.42;;
70757;SDS011;59316;52.964;7.102;2023-06-14T17:42:31;6.75;;;2.50;;
70757;SDS011;59316;52.964;7.102;2023-06-14T17:47:52;4.72;;;2.30;;
70757;SDS011;59316;52.964;7.102;2023-06-14T17:53:13;4.72;;;2.53;;
70757;SDS011;59316;52.964;7.102;2023-06-14T17:58:33;3.25;;;2.40;;
70757;SDS011;59316;52.964;7.102;2023-06-14T18:03:54;5.88;;;2.60;;
70757;SDS011;59316;52.964;7.102;2023-06-14T18:09:16;5.45;;;2.60;;
70757;SDS011;59316;52.964;7.102;2023-06-14T18:14:37;5.40;;;2.67;;
70757;SDS011;59316;52.964;7.102;2023-06-14T18:19:58;3.45;;;2.60;;
70757;SDS011;59316;52.964;7.102;2023-06-14T18:25:18;4.72;;;2.60;;
70757;SDS011;59316;52.964;7.102;2023-06-14T18:30:40;5.75;;;2.40;;
70757;SDS011;59316;52.964;7.102;2023-06-14T18:36:00;3.30;;;2.67;;
70757;SDS011;59316;52.964;7.102;2023-06-14T18:41:21;4.15;;;2.60;;
70757;SDS011;59316;52.964;7.102;2023-06-14T18:46:43;5.07;;;2.35;;
70757;SDS011;59316;52.964;7.102;2023-06-14T18:52:04;5.72;;;2.25;;
70757;SDS011;59316;52.964;7.102;2023-06-14T18:57:26;6.60;;;2.80;;
70757;SDS011;59316;52.964;7.102;2023-06-14T19:02:46;6.90;;;2.40;;
70757;SDS011;59316;52.964;7.102;2023-06-14T19:08:08;4.53;;;2.70;;
70757;SDS011;59316;52.964;7.102;2023-06-14T19:13:29;5.47;;;2.47;;
70757;SDS011;59316;52.964;7.102;2023-06-14T19:18:50;4.10;;;2.40;;
70757;SDS011;59316;52.964;7.102;2023-06-14T19:24:11;5.18;;;2.70;;
70757;SDS011;59316;52.964;7.102;2023-06-14T19:29:33;4.43;;;2.65;;
70757;SDS011;59316;52.964;7.102;2023-06-14T19:34:54;5.10;;;2.63;;
70757;SDS011;59316;52.964;7.102;2023-06-14T19:40:15;4.53;;;2.40;;
70757;SDS011;59316;52.964;7.102;2023-06-14T19:45:37;3.15;;;2.30;;
70757;SDS011;59316;52.964;7.102;2023-06-14T19:50:58;4.78;;;2.40;;
70757;SDS011;59316;52.964;7.102;2023-06-14T19:56:19;8.13;;;2.20;;
70757;SDS011;59316;52.964;7.102;2023-06-14T20:01:40;3.75;;;2.53;;
70757;SDS011;59316;52.964;7.102;2023-06-14T20:07:04;6.93;;;2.80;;
70757;SDS011;59316;52.964;7.102;2023-06-14T20:12:25;4.00;;;2.70;;
70757;SDS011;59316;52.964;7.102;2023-06-14T20:17:46;3.97;;;2.45;;
70757;SDS011;59316;52.964;7.102;2023-06-14T20:23:07;7.03;;;2.72;;
70757;SDS011;59316;52.964;7.102;2023-06-14T20:28:28;6.53;;;2.30;;
70757;SDS011;59316;52.964;7.102;2023-06-14T20:33:49;9.15;;;2.50;;
70757;SDS011;59316;52.964;7.102;2023-06-14T20:39:10;4.70;;;2.03;;
70757;SDS011;59316;52.964;7.102;2023-06-14T20:44:30;5.65;;;2.42;;
70757;SDS011;59316;52.964;7.102;2023-06-14T20:49:51;4.50;;;2.75;;
70757;SDS011;59316;52.964;7.102;2023-06-14T20:55:12;4.82;;;2.15;;
70757;SDS011;59316;52.964;7.102;2023-06-14T21:00:33;4.82;;;2.60;;
70757;SDS011;59316;52.964;7.102;2023-06-14T21:05:54;6.97;;;2.47;;
70757;SDS011;59316;52.964;7.102;2023-06-14T21:11:15;9.55;;;2.70;;
70757;SDS011;59316;52.964;7.102;2023-06-14T21:16:36;4.20;;;2.30;;
70757;SDS011;59316;52.964;7.102;2023-06-14T21:21:57;3.35;;;2.40;;
70757;SDS011;59316;52.964;7.102;2023-06-14T21:27:18;4.72;;;2.70;;
70757;SDS011;59316;52.964;7.102;2023-06-14T21:32:39;5.28;;;2.72;;
70757;SDS011;59316;52.964;7.102;2023-06-14T21:38:00;3.65;;;2.15;;
70757;SDS011;59316;52.964;7.102;2023-06-14T21:43:21;4.05;;;2.60;;
70757;SDS011;59316;52.964;7.102;2023-06-14T21:48:42;5.85;;;2.53;;
70757;SDS011;59316;52.964;7.102;2023-06-14T21:54:03;4.60;;;2.55;;
70757;SDS011;59316;52.964;7.102;2023-06-14T21:59:24;3.92;;;2.65;;
70757;SDS011;59316;52.964;7.102;2023-06-14T22:04:44;3.97;;;2.72;;
70757;SDS011;59316;52.964;7.102;2023-06-14T22:10:05;16.40;;;2.70;;
70757;SDS011;59316;52.964;7.102;2023-06-14T22:15:27;4.95;;;2.50;;
70757;SDS011;59316;52.964;7.102;2023-06-14T22:20:48;6.55;;;2.85;;
70757;SDS011;59316;52.964;7.102;2023-06-14T22:26:08;6.85;;;2.50;;
70757;SDS011;59316;52.964;7.102;2023-06-14T22:31:29;6.32;;;2.72;;
70757;SDS011;59316;52.964;7.102;2023-06-14T22:36:50;4.75;;;2.53;;
70757;SDS011;59316;52.964;7.102;2023-06-14T22:42:11;5.13;;;2.55;;
70757;SDS011;59316;52.964;7.102;2023-06-14T22:47:32;4.53;;;2.22;;
70757;SDS011;59316;52.964;7.102;2023-06-14T22:52:53;9.15;;;3.40;;
70757;SDS011;59316;52.964;7.102;2023-06-14T22:58:14;6.13;;;3.67;;
70757;SDS011;59316;52.964;7.102;2023-06-14T23:03:35;7.22;;;2.47;;
70757;SDS011;59316;52.964;7.102;2023-06-14T23:08:56;5.28;;;3.50;;
70757;SDS011;59316;52.964;7.102;2023-06-14T23:14:17;5.53;;;3.00;;
70757;SDS011;59316;52.964;7.102;2023-06-14T23:19:38;5.10;;;2.72;;
70757;SDS011;59316;52.964;7.102;2023-06-14T23:24:59;6.78;;;3.00;;
70757;SDS011;59316;52.964;7.102;2023-06-14T23:30:24;5.88;;;3.60;;
70757;SDS011;59316;52.964;7.102;2023-06-14T23:35:45;7.10;;;3.38;;
70757;SDS011;59316;52.964;7.102;2023-06-14T23:41:07;7.57;;;2.83;;
70757;SDS011;59316;52.964;7.102;2023-06-14T23:46:29;5.60;;;2.53;;
70757;SDS011;59316;52.964;7.102;2023-06-14T23:51:50;3.25;;;2.30;;
70757;SDS011;59316;52.964;7.102;2023-06-14T23:57:11;4.32;;;2.40;;
